createdAt,value
2023-05-07T00:00:09.404Z,12.83
2023-05-07T00:02:36.702Z,14.43
2023-05-07T00:05:04.682Z,13.53
2023-05-07T00:07:31.673Z,15.13
2023-05-07T00:09:58.192Z,14.07
2023-05-07T00:12:24.766Z,13.57
2023-05-07T00:14:52.372Z,12.77
2023-05-07T00:17:18.989Z,12.40
2023-05-07T00:19:45.539Z,12.97
2023-05-07T00:22:13.142Z,11.53
2023-05-07T00:24:39.609Z,11.77
2023-05-07T00:27:06.281Z,11.60
2023-05-07T00:29:32.806Z,11.83
2023-05-07T00:31:59.213Z,11.33
2023-05-07T00:34:25.654Z,11.37
2023-05-07T00:36:52.091Z,11.43
2023-05-07T00:39:18.596Z,10.43
2023-05-07T00:41:45.029Z,11.50
2023-05-07T00:44:11.524Z,11.10
2023-05-07T00:46:38.642Z,11.03
2023-05-07T00:49:06.155Z,10.57
2023-05-07T00:51:34.021Z,11.63
2023-05-07T00:54:03.027Z,11.27
2023-05-07T00:56:29.782Z,11.63
2023-05-07T00:58:56.615Z,12.20
2023-05-07T01:01:23.627Z,11.63
2023-05-07T01:03:50.214Z,13.17
2023-05-07T01:06:18.068Z,13.40
2023-05-07T01:08:46.799Z,13.30
2023-05-07T01:11:13.560Z,13.10
2023-05-07T01:13:41.370Z,12.43
2023-05-07T01:16:09.530Z,14.20
2023-05-07T01:18:36.338Z,13.80
2023-05-07T01:21:05.683Z,14.43
2023-05-07T01:23:33.839Z,14.23
2023-05-07T01:26:00.312Z,14.20
2023-05-07T01:28:26.889Z,14.97
2023-05-07T01:31:02.843Z,14.03
2023-05-07T01:33:32.646Z,14.53
2023-05-07T01:36:03.101Z,15.83
2023-05-07T01:38:29.915Z,15.23
2023-05-07T01:40:57.208Z,16.20
2023-05-07T01:43:23.768Z,15.67
2023-05-07T01:45:50.887Z,15.63
2023-05-07T01:48:18.816Z,15.40
2023-05-07T01:50:45.997Z,16.80
2023-05-07T01:53:12.584Z,15.77
2023-05-07T01:55:39.082Z,14.93
2023-05-07T01:58:05.721Z,17.17
2023-05-07T02:00:32.894Z,16.20
2023-05-07T02:02:59.749Z,17.63
2023-05-07T02:05:26.379Z,16.10
2023-05-07T02:07:52.839Z,16.70
2023-05-07T02:10:19.269Z,16.90
2023-05-07T02:12:45.834Z,15.57
2023-05-07T02:15:12.319Z,17.07
2023-05-07T02:18:00.514Z,17.00
2023-05-07T02:20:27.122Z,16.27
2023-05-07T02:22:53.628Z,15.07
2023-05-07T02:25:20.126Z,16.97
2023-05-07T02:27:46.565Z,16.03
2023-05-07T02:30:13.278Z,15.10
2023-05-07T02:32:39.886Z,16.13
2023-05-07T02:35:06.628Z,14.30
2023-05-07T02:37:33.053Z,14.43
2023-05-07T02:39:59.507Z,14.57
2023-05-07T02:42:26.044Z,15.13
2023-05-07T02:44:52.504Z,14.63
2023-05-07T02:47:19.256Z,14.23
2023-05-07T02:49:45.807Z,14.57
2023-05-07T02:52:12.228Z,13.60
2023-05-07T02:54:38.758Z,13.83
2023-05-07T02:57:05.275Z,14.10
2023-05-07T02:59:31.819Z,13.50
2023-05-07T03:01:58.262Z,12.87
2023-05-07T03:04:24.812Z,14.27
2023-05-07T03:06:51.297Z,12.93
2023-05-07T03:09:17.845Z,13.63
2023-05-07T03:11:44.434Z,13.47
2023-05-07T03:14:11.913Z,12.50
2023-05-07T03:16:39.211Z,12.83
2023-05-07T03:19:05.787Z,12.90
2023-05-07T03:21:34.721Z,13.17
2023-05-07T03:24:02.563Z,13.87
2023-05-07T03:26:29.145Z,12.63
2023-05-07T03:28:56.410Z,11.77
2023-05-07T03:31:22.996Z,12.73
2023-05-07T03:33:54.173Z,11.73
2023-05-07T03:36:21.405Z,11.73
2023-05-07T03:38:48.746Z,11.53
2023-05-07T03:41:15.366Z,11.80
2023-05-07T03:43:41.858Z,11.73
2023-05-07T03:46:08.571Z,11.10
2023-05-07T03:48:35.024Z,11.67
2023-05-07T03:51:01.583Z,10.93
2023-05-07T03:53:28.097Z,11.23
2023-05-07T03:55:54.636Z,11.63
2023-05-07T03:58:21.218Z,11.20
2023-05-07T04:00:47.628Z,11.87
2023-05-07T04:03:14.147Z,11.37
2023-05-07T04:05:40.839Z,11.60
2023-05-07T04:08:07.315Z,12.23
2023-05-07T04:10:33.709Z,11.67
2023-05-07T04:13:00.296Z,11.63
2023-05-07T04:15:26.732Z,10.63
2023-05-07T04:17:53.299Z,11.13
2023-05-07T04:20:19.780Z,10.30
2023-05-07T04:22:46.322Z,10.67
2023-05-07T04:25:12.812Z,10.73
2023-05-07T04:27:39.212Z,10.90
2023-05-07T04:30:06.336Z,10.67
2023-05-07T04:32:32.972Z,9.70
2023-05-07T04:34:59.467Z,10.50
2023-05-07T04:37:27.475Z,10.23
2023-05-07T04:39:53.918Z,9.93
2023-05-07T04:42:20.398Z,10.20
2023-05-07T04:44:46.834Z,10.47
2023-05-07T04:47:13.356Z,10.53
2023-05-07T04:49:40.159Z,9.70
2023-05-07T04:52:06.700Z,10.10
2023-05-07T04:54:33.162Z,9.70
2023-05-07T04:56:59.637Z,10.07
2023-05-07T04:59:26.186Z,9.37
2023-05-07T05:01:52.811Z,8.97
2023-05-07T05:04:19.320Z,10.00
2023-05-07T05:06:45.823Z,9.47
2023-05-07T05:09:12.284Z,9.90
2023-05-07T05:11:39.789Z,8.70
2023-05-07T05:14:06.368Z,9.70
2023-05-07T05:16:32.919Z,10.13
2023-05-07T05:18:59.714Z,10.13
2023-05-07T05:21:26.271Z,9.10
2023-05-07T05:23:52.939Z,10.33
2023-05-07T05:26:19.775Z,9.47
2023-05-07T05:28:46.294Z,10.30
2023-05-07T05:31:12.788Z,9.23
2023-05-07T05:33:39.372Z,9.77
2023-05-07T05:36:06.352Z,10.23
2023-05-07T05:38:32.815Z,9.93
2023-05-07T05:40:59.300Z,9.33
2023-05-07T05:43:25.713Z,9.33
2023-05-07T05:45:52.201Z,10.47
2023-05-07T05:48:18.718Z,9.63
2023-05-07T05:50:45.202Z,10.10
2023-05-07T05:53:13.740Z,10.03
2023-05-07T05:55:40.340Z,10.83
2023-05-07T05:58:06.808Z,10.13
2023-05-07T06:00:33.390Z,10.33
2023-05-07T06:02:59.843Z,11.00
2023-05-07T06:05:26.509Z,10.20
2023-05-07T06:07:53.058Z,10.30
2023-05-07T06:10:19.583Z,9.43
2023-05-07T06:12:46.085Z,10.97
2023-05-07T06:15:14.619Z,9.33
2023-05-07T06:17:41.149Z,11.87
2023-05-07T06:20:08.221Z,11.50
2023-05-07T06:22:34.786Z,11.70
2023-05-07T06:25:01.333Z,12.53
2023-05-07T06:27:29.102Z,12.00
2023-05-07T06:29:55.631Z,12.73
2023-05-07T06:32:22.116Z,13.27
2023-05-07T06:34:48.637Z,12.67
2023-05-07T06:37:15.182Z,14.10
2023-05-07T06:39:41.745Z,13.00
2023-05-07T06:42:08.247Z,13.70
2023-05-07T06:44:34.689Z,13.57
2023-05-07T06:47:01.343Z,13.70
2023-05-07T06:49:27.757Z,13.27
2023-05-07T06:51:54.161Z,14.70
2023-05-07T06:54:21.336Z,14.93
2023-05-07T06:56:47.795Z,15.27
2023-05-07T06:59:14.312Z,13.53
2023-05-07T07:01:41.514Z,15.00
2023-05-07T07:04:08.190Z,14.00
2023-05-07T07:06:34.722Z,16.27
2023-05-07T07:09:02.424Z,16.30
2023-05-07T07:11:28.938Z,15.67
2023-05-07T07:13:55.686Z,15.10
2023-05-07T07:16:23.172Z,16.30
2023-05-07T07:18:49.754Z,17.37
2023-05-07T07:21:16.322Z,16.00
2023-05-07T07:23:42.819Z,16.73
2023-05-07T07:26:09.638Z,15.63
2023-05-07T07:28:45.159Z,16.60
2023-05-07T07:31:12.191Z,14.73
2023-05-07T07:33:38.859Z,16.70
2023-05-07T07:36:07.392Z,16.03
2023-05-07T07:38:34.665Z,15.50
2023-05-07T07:41:02.507Z,16.57
2023-05-07T07:43:29.018Z,16.50
2023-05-07T07:45:55.621Z,16.23
2023-05-07T07:48:22.066Z,14.67
2023-05-07T07:50:54.876Z,13.33
2023-05-07T07:53:21.888Z,12.73
2023-05-07T07:55:48.446Z,13.23
2023-05-07T07:58:14.899Z,12.47
2023-05-07T08:00:41.578Z,12.13
2023-05-07T08:03:10.866Z,12.23
2023-05-07T08:05:37.584Z,13.23
2023-05-07T08:08:04.438Z,13.37
2023-05-07T08:10:35.264Z,13.17
2023-05-07T08:13:03.079Z,12.90
2023-05-07T08:15:29.670Z,12.63
2023-05-07T08:17:58.527Z,12.73
2023-05-07T08:20:25.030Z,11.63
2023-05-07T08:22:52.408Z,11.07
2023-05-07T08:25:18.989Z,11.50
2023-05-07T08:27:46.035Z,11.13
2023-05-07T08:30:13.294Z,10.57
2023-05-07T08:32:39.894Z,10.47
2023-05-07T08:35:06.776Z,10.77
2023-05-07T08:37:33.209Z,11.20
2023-05-07T08:39:59.707Z,10.67
2023-05-07T08:42:26.907Z,9.07
2023-05-07T08:44:57.982Z,9.00
2023-05-07T08:47:33.381Z,9.17
2023-05-07T08:50:00.037Z,7.67
2023-05-07T08:52:27.782Z,8.00
2023-05-07T08:54:54.289Z,7.67
2023-05-07T08:57:22.665Z,8.50
2023-05-07T08:59:49.091Z,8.27
2023-05-07T09:02:16.630Z,7.23
2023-05-07T09:04:43.310Z,7.60
2023-05-07T09:07:09.782Z,8.10
2023-05-07T09:09:36.476Z,8.13
2023-05-07T09:12:04.699Z,6.43
2023-05-07T09:14:31.696Z,6.70
2023-05-07T09:16:58.111Z,6.33
2023-05-07T09:19:25.765Z,5.80
2023-05-07T09:22:05.902Z,6.07
2023-05-07T09:24:35.982Z,6.57
2023-05-07T09:27:03.394Z,5.53
2023-05-07T09:29:31.215Z,5.57
2023-05-07T09:31:57.726Z,6.17
2023-05-07T09:34:24.323Z,8.60
2023-05-07T09:36:51.131Z,5.83
2023-05-07T09:39:17.736Z,9.17
2023-05-07T09:41:46.312Z,9.60
2023-05-07T09:44:13.773Z,8.97
2023-05-07T09:46:43.473Z,6.80
2023-05-07T09:49:15.140Z,9.17
2023-05-07T09:51:46.856Z,9.03
2023-05-07T09:54:13.562Z,9.20
2023-05-07T09:56:42.638Z,9.60
2023-05-07T09:59:11.330Z,8.87
2023-05-07T10:01:38.361Z,8.40
2023-05-07T10:04:06.307Z,7.43
2023-05-07T10:06:32.933Z,8.50
2023-05-07T10:09:00.148Z,8.13
2023-05-07T10:11:27.166Z,6.77
2023-05-07T10:13:54.425Z,7.07
2023-05-07T10:16:22.474Z,6.90
2023-05-07T10:18:49.487Z,5.90
2023-05-07T10:21:20.025Z,5.80
2023-05-07T10:23:50.636Z,4.37
2023-05-07T10:26:19.286Z,4.03
2023-05-07T10:28:50.081Z,4.83
2023-05-07T10:31:45.514Z,4.73
2023-05-07T10:34:17.808Z,5.10
2023-05-07T10:36:44.784Z,5.27
2023-05-07T10:39:11.436Z,5.73
2023-05-07T10:41:38.040Z,5.17
2023-05-07T10:44:04.762Z,4.47
2023-05-07T10:46:34.068Z,5.70
2023-05-07T10:49:07.376Z,5.20
2023-05-07T10:51:35.064Z,5.13
2023-05-07T10:54:14.798Z,4.57
2023-05-07T10:56:44.178Z,4.73
2023-05-07T10:59:28.311Z,4.10
2023-05-07T11:02:05.317Z,4.93
2023-05-07T11:04:35.650Z,4.10
2023-05-07T11:07:11.340Z,5.73
2023-05-07T11:09:57.022Z,5.17
2023-05-07T11:12:38.916Z,5.70
2023-05-07T11:15:13.435Z,5.37
2023-05-07T11:17:57.433Z,6.73
2023-05-07T11:20:45.928Z,6.57
2023-05-07T11:23:34.602Z,6.53
2023-05-07T11:26:08.657Z,4.63
2023-05-07T11:28:40.674Z,5.37
2023-05-07T11:31:07.725Z,5.80
2023-05-07T11:33:36.286Z,7.37
2023-05-07T11:36:06.786Z,5.10
2023-05-07T11:38:37.684Z,4.47
2023-05-07T11:41:06.280Z,4.50
2023-05-07T11:43:33.604Z,5.93
2023-05-07T11:46:11.873Z,5.70
2023-05-07T11:48:39.698Z,6.37
2023-05-07T11:51:07.534Z,6.87
2023-05-07T11:53:41.900Z,6.07
2023-05-07T11:56:09.976Z,6.00
2023-05-07T11:58:37.225Z,5.17
2023-05-07T12:01:04.008Z,4.10
2023-05-07T12:03:32.322Z,3.00
2023-05-07T12:06:02.560Z,4.63
2023-05-07T12:08:29.091Z,4.80
2023-05-07T12:10:55.832Z,3.67
2023-05-07T12:13:24.639Z,6.67
2023-05-07T12:15:55.967Z,6.83
2023-05-07T12:18:23.926Z,8.77
2023-05-07T12:20:51.473Z,9.23
2023-05-07T12:23:18.942Z,8.40
2023-05-07T12:25:48.567Z,7.37
2023-05-07T12:28:18.924Z,7.27
2023-05-07T12:30:47.782Z,8.70
2023-05-07T12:33:25.625Z,8.97
2023-05-07T12:35:53.937Z,10.20
2023-05-07T12:38:20.693Z,8.33
2023-05-07T12:40:51.909Z,10.83
2023-05-07T12:43:29.298Z,11.77
2023-05-07T12:45:57.659Z,10.60
2023-05-07T12:48:24.877Z,10.20
2023-05-07T12:50:52.734Z,10.77
2023-05-07T12:53:22.126Z,11.27
2023-05-07T12:55:51.978Z,10.97
2023-05-07T12:58:20.950Z,9.53
2023-05-07T13:00:51.690Z,9.37
2023-05-07T13:03:25.297Z,8.50
2023-05-07T13:05:52.658Z,9.60
2023-05-07T13:08:26.029Z,8.90
2023-05-07T13:10:53.192Z,8.07
2023-05-07T13:13:21.233Z,7.57
2023-05-07T13:15:48.662Z,7.53
2023-05-07T13:18:15.642Z,7.27
2023-05-07T13:20:42.245Z,7.00
2023-05-07T13:23:08.720Z,7.30
2023-05-07T13:25:36.361Z,7.90
2023-05-07T13:28:10.714Z,7.67
2023-05-07T13:30:37.911Z,7.80
2023-05-07T13:33:05.077Z,7.40
2023-05-07T13:35:31.703Z,7.03
2023-05-07T13:37:58.196Z,6.37
2023-05-07T13:40:24.871Z,8.80
2023-05-07T13:42:51.950Z,7.50
2023-05-07T13:45:21.610Z,6.93
2023-05-07T13:47:48.280Z,6.80
2023-05-07T13:50:14.740Z,6.17
2023-05-07T13:52:46.462Z,6.20
2023-05-07T13:55:13.776Z,6.80
2023-05-07T13:57:40.541Z,7.67
2023-05-07T14:00:07.652Z,8.73
2023-05-07T14:02:34.350Z,9.03
2023-05-07T14:05:00.911Z,8.93
2023-05-07T14:07:27.654Z,9.37
2023-05-07T14:09:54.112Z,9.60
2023-05-07T14:12:20.622Z,11.97
2023-05-07T14:14:47.810Z,12.80
2023-05-07T14:17:14.259Z,13.80
2023-05-07T14:19:40.825Z,16.33
2023-05-07T14:22:07.306Z,14.93
2023-05-07T14:24:38.742Z,13.53
2023-05-07T14:27:05.728Z,13.27
2023-05-07T14:29:32.339Z,13.27
2023-05-07T14:31:58.774Z,12.67
2023-05-07T14:34:25.387Z,10.03
2023-05-07T14:36:52.946Z,14.20
2023-05-07T14:39:19.442Z,13.77
2023-05-07T14:41:45.907Z,15.27
2023-05-07T14:44:12.419Z,14.50
2023-05-07T14:46:39.073Z,15.40
2023-05-07T14:49:05.895Z,16.80
2023-05-07T14:51:34.051Z,15.53
2023-05-07T14:54:02.532Z,14.70
2023-05-07T14:56:28.995Z,13.50
2023-05-07T14:58:55.542Z,13.63
2023-05-07T15:01:22.516Z,13.73
2023-05-07T15:03:49.248Z,13.47
2023-05-07T15:06:16.050Z,12.70
2023-05-07T15:08:42.579Z,14.33
2023-05-07T15:11:09.165Z,13.70
2023-05-07T15:13:35.663Z,13.27
2023-05-07T15:16:02.120Z,11.97
2023-05-07T15:18:28.676Z,11.90
2023-05-07T15:20:56.870Z,12.33
2023-05-07T15:23:23.321Z,11.73
2023-05-07T15:25:52.190Z,10.90
2023-05-07T15:28:20.491Z,9.43
2023-05-07T15:30:46.929Z,11.63
2023-05-07T15:33:13.334Z,11.73
2023-05-07T15:35:39.826Z,10.70
2023-05-07T15:38:06.406Z,11.07
2023-05-07T15:40:33.865Z,10.87
2023-05-07T15:43:01.373Z,10.90
2023-05-07T15:45:28.793Z,10.50
2023-05-07T15:47:55.341Z,11.07
2023-05-07T15:50:22.080Z,11.23
2023-05-07T15:52:48.531Z,11.67
2023-05-07T15:55:15.438Z,11.47
2023-05-07T15:57:41.940Z,13.10
2023-05-07T16:00:10.191Z,12.60
2023-05-07T16:02:37.426Z,11.67
2023-05-07T16:05:04.153Z,11.97
2023-05-07T16:07:30.731Z,15.87
2023-05-07T16:09:58.214Z,14.47
2023-05-07T16:12:24.677Z,11.67
2023-05-07T16:14:52.003Z,16.10
2023-05-07T16:17:18.636Z,18.63
2023-05-07T16:19:46.278Z,17.87
2023-05-07T16:22:14.351Z,18.13
2023-05-07T16:24:42.241Z,17.70
2023-05-07T16:27:08.768Z,17.63
2023-05-07T16:29:35.512Z,17.83
2023-05-07T16:32:02.037Z,14.00
2023-05-07T16:36:55.119Z,17.87
2023-05-07T16:39:22.746Z,13.80
2023-05-07T16:41:50.660Z,18.80
2023-05-07T16:44:18.028Z,19.23
2023-05-07T16:46:44.568Z,16.67
2023-05-07T16:49:11.143Z,18.47
2023-05-07T16:51:37.647Z,17.87
2023-05-07T16:54:04.165Z,19.50
2023-05-07T16:56:30.640Z,20.53
2023-05-07T16:58:57.285Z,21.17
2023-05-07T17:01:23.766Z,20.30
2023-05-07T17:03:50.656Z,20.93
2023-05-07T17:06:17.594Z,20.67
2023-05-07T17:08:44.634Z,21.53
2023-05-07T17:11:11.024Z,19.73
2023-05-07T17:13:37.640Z,22.40
2023-05-07T17:16:04.596Z,21.47
2023-05-07T17:18:31.235Z,21.73
2023-05-07T17:20:57.717Z,19.07
2023-05-07T17:23:24.312Z,21.83
2023-05-07T17:25:50.916Z,21.13
2023-05-07T17:28:17.493Z,18.77
2023-05-07T17:30:43.984Z,22.20
2023-05-07T17:33:20.946Z,22.33
2023-05-07T17:35:47.975Z,21.37
2023-05-07T17:38:14.473Z,21.10
2023-05-07T17:40:40.966Z,21.90
2023-05-07T17:43:07.558Z,21.47
2023-05-07T17:45:34.059Z,20.63
2023-05-07T17:48:01.415Z,20.67
2023-05-07T17:50:28.253Z,20.87
2023-05-07T17:52:54.784Z,21.47
2023-05-07T17:55:21.371Z,22.83
2023-05-07T17:57:47.850Z,21.27
2023-05-07T18:00:14.821Z,23.30
2023-05-07T18:02:41.846Z,21.57
2023-05-07T18:05:11.566Z,20.60
2023-05-07T18:07:38.049Z,21.60
2023-05-07T18:10:04.840Z,21.87
2023-05-07T18:12:31.444Z,21.67
2023-05-07T18:14:58.010Z,23.17
2023-05-07T18:17:24.591Z,21.30
2023-05-07T18:19:54.553Z,22.10
2023-05-07T18:22:21.641Z,21.90
2023-05-07T18:24:48.227Z,22.20
2023-05-07T18:27:14.701Z,21.27
2023-05-07T18:29:41.225Z,21.80
2023-05-07T18:32:07.938Z,21.63
2023-05-07T18:34:34.537Z,21.13
2023-05-07T18:37:01.260Z,21.97
2023-05-07T18:39:27.769Z,21.90
2023-05-07T18:41:54.737Z,22.83
2023-05-07T18:44:21.194Z,22.30
2023-05-07T18:46:48.772Z,22.47
2023-05-07T18:49:15.317Z,21.77
2023-05-07T18:51:41.957Z,23.10
2023-05-07T18:54:08.504Z,22.30
2023-05-07T18:56:35.007Z,22.43
2023-05-07T18:59:01.456Z,21.93
2023-05-07T19:01:27.902Z,22.60
2023-05-07T19:03:54.524Z,23.13
2023-05-07T19:06:21.318Z,22.47
2023-05-07T19:08:47.847Z,22.63
2023-05-07T19:11:14.609Z,21.33
2023-05-07T19:13:41.092Z,21.13
2023-05-07T19:16:10.342Z,22.90
2023-05-07T19:18:36.896Z,23.23
2023-05-07T19:21:03.686Z,23.30
2023-05-07T19:23:30.674Z,23.07
2023-05-07T19:25:57.310Z,22.20
2023-05-07T19:28:25.683Z,24.07
2023-05-07T19:30:53.008Z,22.00
2023-05-07T19:33:19.515Z,23.37
2023-05-07T19:35:46.097Z,23.27
2023-05-07T19:38:13.194Z,22.80
2023-05-07T19:40:39.887Z,22.83
2023-05-07T19:43:06.991Z,23.47
2023-05-07T19:45:33.777Z,24.13
2023-05-07T19:48:00.406Z,22.23
2023-05-07T19:50:26.874Z,24.00
2023-05-07T19:52:53.313Z,23.70
2023-05-07T19:55:20.223Z,24.53
2023-05-07T19:57:50.080Z,24.73
2023-05-07T20:00:17.137Z,23.37
2023-05-07T20:02:43.807Z,23.43
2023-05-07T20:05:12.561Z,22.33
2023-05-07T20:07:38.978Z,24.77
2023-05-07T20:10:05.799Z,24.70
2023-05-07T20:12:32.266Z,22.57
2023-05-07T20:14:58.779Z,24.43
2023-05-07T20:17:25.382Z,24.03
2023-05-07T20:19:54.959Z,23.77
2023-05-07T20:22:21.658Z,24.07
2023-05-07T20:24:48.127Z,24.73
2023-05-07T20:27:15.937Z,23.60
2023-05-07T20:29:42.341Z,22.77
2023-05-07T20:32:09.010Z,25.00
2023-05-07T20:34:35.520Z,23.23
2023-05-07T20:37:02.895Z,23.83
2023-05-07T20:39:29.407Z,24.90
2023-05-07T20:41:55.977Z,24.77
2023-05-07T20:44:22.673Z,23.63
2023-05-07T20:46:49.911Z,24.20
2023-05-07T20:49:16.765Z,24.20
2023-05-07T20:51:43.331Z,24.00
2023-05-07T20:54:10.945Z,24.60
2023-05-07T20:56:37.497Z,24.40
2023-05-07T20:59:03.951Z,23.20
2023-05-07T21:01:30.626Z,22.70
2023-05-07T21:03:57.210Z,22.30
2023-05-07T21:06:23.791Z,22.50
2023-05-07T21:08:51.596Z,24.60
2023-05-07T21:11:18.198Z,24.30
2023-05-07T21:13:44.998Z,24.93
2023-05-07T21:16:11.612Z,24.97
2023-05-07T21:18:38.268Z,24.37
2023-05-07T21:21:11.977Z,23.83
2023-05-07T21:23:39.498Z,25.30
2023-05-07T21:26:06.073Z,25.50
2023-05-07T21:28:32.614Z,24.17
2023-05-07T21:30:59.098Z,24.10
2023-05-07T21:33:25.770Z,25.47
2023-05-07T21:35:52.321Z,24.83
2023-05-07T21:38:18.899Z,23.30
2023-05-07T21:40:45.704Z,24.37
2023-05-07T21:43:12.191Z,25.73
2023-05-07T21:45:39.901Z,25.87
2023-05-07T21:48:07.214Z,25.50
2023-05-07T21:50:33.754Z,25.10
2023-05-07T21:53:00.300Z,25.53
2023-05-07T21:55:26.837Z,24.97
2023-05-07T21:58:01.957Z,25.33
2023-05-07T22:00:31.926Z,24.83
2023-05-07T22:02:58.542Z,24.63
2023-05-07T22:05:25.070Z,24.60
2023-05-07T22:07:51.540Z,26.27
2023-05-07T22:10:22.713Z,24.97
2023-05-07T22:12:49.473Z,25.20
2023-05-07T22:15:15.947Z,24.27
2023-05-07T22:17:42.440Z,24.57
2023-05-07T22:20:09.524Z,25.23
2023-05-07T22:22:52.677Z,24.80
2023-05-07T22:25:20.945Z,25.70
2023-05-07T22:27:47.911Z,23.40
2023-05-07T22:30:14.679Z,22.97
2023-05-07T22:32:45.536Z,22.10
2023-05-07T22:35:12.386Z,23.10
2023-05-07T22:37:39.312Z,21.33
2023-05-07T22:40:06.463Z,22.10
2023-05-07T22:42:32.913Z,22.57
2023-05-07T22:44:59.489Z,21.70
2023-05-07T22:47:29.273Z,23.87
2023-05-07T22:49:56.156Z,23.03
2023-05-07T22:52:22.819Z,24.17
2023-05-07T22:54:49.260Z,24.67
2023-05-07T22:57:16.192Z,28.03
2023-05-07T22:59:42.654Z,26.77
2023-05-07T23:02:09.187Z,27.03
2023-05-07T23:04:35.654Z,26.17
2023-05-07T23:07:02.142Z,25.07
2023-05-07T23:09:28.630Z,25.93
2023-05-07T23:11:55.199Z,26.37
2023-05-07T23:14:23.100Z,24.43
2023-05-07T23:16:51.535Z,24.67
2023-05-07T23:19:18.357Z,24.60
2023-05-07T23:21:44.902Z,24.63
2023-05-07T23:24:11.516Z,24.13
2023-05-07T23:26:37.991Z,23.57
2023-05-07T23:29:04.759Z,24.70
2023-05-07T23:31:31.500Z,24.00
2023-05-07T23:33:57.999Z,22.50
2023-05-07T23:36:24.577Z,24.10
2023-05-07T23:38:52.137Z,23.00
2023-05-07T23:41:18.596Z,23.23
2023-05-07T23:43:45.172Z,24.83
2023-05-07T23:46:11.640Z,23.87
2023-05-07T23:48:38.094Z,22.90
2023-05-07T23:51:04.723Z,22.80
2023-05-07T23:53:31.546Z,22.67
2023-05-07T23:55:57.987Z,23.27
2023-05-07T23:58:24.410Z,24.43
